sensor_id;sensor_type;location;lat;lon;timestamp;pressure;altitude;pressure_sealevel;temperature;humidity
19884;BME280;10104;50.732;10.174;2023-07-20T00:01:44;97610.31;;;17.75;79.73
19884;BME280;10104;50.732;10.174;2023-07-20T00:04:06;97612.06;;;17.69;79.97
19884;BME280;10104;50.732;10.174;2023-07-20T00:06:28;97603.91;;;17.76;79.05
19884;BME280;10104;50.732;10.174;2023-07-20T00:08:50;97603.06;;;17.75;78.71
19884;BME280;10104;50.732;10.174;2023-07-20T00:11:12;97601.31;;;17.53;79.50
19884;BME280;10104;50.732;10.174;2023-07-20T00:13:34;97606.22;;;17.44;79.43
19884;BME280;10104;50.732;10.174;2023-07-20T00:15:56;97604.13;;;17.46;78.98
19884;BME280;10104;50.732;10.174;2023-07-20T00:18:18;97608.16;;;17.49;78.69
19884;BME280;10104;50.732;10.174;2023-07-20T00:20:42;97604.91;;;17.47;78.46
19884;BME280;10104;50.732;10.174;2023-07-20T00:23:04;97606.53;;;17.48;78.35
19884;BME280;10104;50.732;10.174;2023-07-20T00:25:25;97603.38;;;17.22;80.21
19884;BME280;10104;50.732;10.174;2023-07-20T00:27:47;97612.59;;;17.15;79.86
19884;BME280;10104;50.732;10.174;2023-07-20T00:30:09;97614.72;;;17.01;81.13
19884;BME280;10104;50.732;10.174;2023-07-20T00:32:31;97612.75;;;16.96;80.78
19884;BME280;10104;50.732;10.174;2023-07-20T00:34:52;97608.06;;;17.04;80.25
19884;BME280;10104;50.732;10.174;2023-07-20T00:37:14;97605.84;;;17.12;80.11
19884;BME280;10104;50.732;10.174;2023-07-20T00:39:35;97607.56;;;17.18;80.16
19884;BME280;10104;50.732;10.174;2023-07-20T00:41:57;97600.44;;;17.24;80.39
19884;BME280;10104;50.732;10.174;2023-07-20T00:44:19;97609.00;;;17.09;81.19
19884;BME280;10104;50.732;10.174;2023-07-20T00:46:40;97607.13;;;17.10;80.97
19884;BME280;10104;50.732;10.174;2023-07-20T00:49:03;97599.81;;;17.05;80.61
19884;BME280;10104;50.732;10.174;2023-07-20T00:51:26;97605.53;;;16.85;81.85
19884;BME280;10104;50.732;10.174;2023-07-20T00:53:48;97608.22;;;16.97;80.78
19884;BME280;10104;50.732;10.174;2023-07-20T00:56:10;97599.94;;;16.98;80.14
19884;BME280;10104;50.732;10.174;2023-07-20T00:58:33;97596.72;;;16.96;79.76
19884;BME280;10104;50.732;10.174;2023-07-20T01:00:54;97600.19;;;16.97;79.18
19884;BME280;10104;50.732;10.174;2023-07-20T01:03:16;97593.66;;;16.93;79.06
19884;BME280;10104;50.732;10.174;2023-07-20T01:05:48;97593.44;;;16.94;78.55
19884;BME280;10104;50.732;10.174;2023-07-20T01:10:57;97605.09;;;16.88;78.77
19884;BME280;10104;50.732;10.174;2023-07-20T01:13:21;97606.16;;;16.64;81.12
19884;BME280;10104;50.732;10.174;2023-07-20T01:15:49;97606.97;;;16.65;80.20
19884;BME280;10104;50.732;10.174;2023-07-20T01:18:10;97621.03;;;16.60;80.31
19884;BME280;10104;50.732;10.174;2023-07-20T01:20:34;97615.81;;;16.65;80.63
19884;BME280;10104;50.732;10.174;2023-07-20T01:26:02;97614.03;;;16.59;81.12
19884;BME280;10104;50.732;10.174;2023-07-20T01:31:34;97600.53;;;16.42;84.37
19884;BME280;10104;50.732;10.174;2023-07-20T01:33:58;97602.50;;;16.24;86.23
19884;BME280;10104;50.732;10.174;2023-07-20T01:36:23;97608.53;;;16.19;86.47
19884;BME280;10104;50.732;10.174;2023-07-20T01:38:46;97604.59;;;16.22;85.71
19884;BME280;10104;50.732;10.174;2023-07-20T01:41:08;97609.22;;;16.03;87.35
19884;BME280;10104;50.732;10.174;2023-07-20T01:43:29;97615.75;;;16.18;85.73
19884;BME280;10104;50.732;10.174;2023-07-20T01:45:51;97612.50;;;16.28;84.88
19884;BME280;10104;50.732;10.174;2023-07-20T01:48:13;97603.31;;;16.36;84.58
19884;BME280;10104;50.732;10.174;2023-07-20T01:50:34;97602.75;;;16.45;83.98
19884;BME280;10104;50.732;10.174;2023-07-20T01:52:56;97601.25;;;16.49;83.44
19884;BME280;10104;50.732;10.174;2023-07-20T01:55:18;97602.16;;;16.43;83.74
19884;BME280;10104;50.732;10.174;2023-07-20T01:57:40;97594.75;;;16.45;83.19
19884;BME280;10104;50.732;10.174;2023-07-20T02:00:01;97607.41;;;16.50;82.58
19884;BME280;10104;50.732;10.174;2023-07-20T02:02:26;97601.13;;;16.44;82.05
19884;BME280;10104;50.732;10.174;2023-07-20T02:04:48;97595.06;;;16.49;81.61
19884;BME280;10104;50.732;10.174;2023-07-20T02:07:10;97597.41;;;16.45;81.43
19884;BME280;10104;50.732;10.174;2023-07-20T02:09:31;97599.03;;;16.35;81.55
19884;BME280;10104;50.732;10.174;2023-07-20T02:11:53;97599.97;;;16.29;81.76
19884;BME280;10104;50.732;10.174;2023-07-20T02:14:14;97603.19;;;16.19;82.22
19884;BME280;10104;50.732;10.174;2023-07-20T02:16:36;97595.19;;;16.19;82.39
19884;BME280;10104;50.732;10.174;2023-07-20T02:18:57;97599.16;;;16.16;82.68
19884;BME280;10104;50.732;10.174;2023-07-20T02:21:19;97602.97;;;16.21;83.09
19884;BME280;10104;50.732;10.174;2023-07-20T02:23:41;97607.84;;;16.24;82.57
19884;BME280;10104;50.732;10.174;2023-07-20T02:26:03;97611.69;;;16.28;82.27
19884;BME280;10104;50.732;10.174;2023-07-20T02:28:24;97613.78;;;16.26;82.41
19884;BME280;10104;50.732;10.174;2023-07-20T02:30:46;97617.50;;;16.25;83.02
19884;BME280;10104;50.732;10.174;2023-07-20T02:33:07;97612.97;;;16.25;83.38
19884;BME280;10104;50.732;10.174;2023-07-20T02:35:29;97614.09;;;16.17;84.58
19884;BME280;10104;50.732;10.174;2023-07-20T02:37:51;97612.00;;;15.96;86.53
19884;BME280;10104;50.732;10.174;2023-07-20T02:40:13;97614.34;;;16.04;84.80
19884;BME280;10104;50.732;10.174;2023-07-20T02:42:35;97607.00;;;16.11;84.03
19884;BME280;10104;50.732;10.174;2023-07-20T02:44:56;97606.69;;;16.08;84.95
19884;BME280;10104;50.732;10.174;2023-07-20T02:47:18;97615.47;;;15.97;85.91
19884;BME280;10104;50.732;10.174;2023-07-20T02:49:39;97615.47;;;15.85;86.91
19884;BME280;10104;50.732;10.174;2023-07-20T02:52:01;97614.78;;;16.01;85.77
19884;BME280;10104;50.732;10.174;2023-07-20T02:54:22;97611.53;;;15.99;85.93
19884;BME280;10104;50.732;10.174;2023-07-20T02:56:44;97618.50;;;16.12;86.08
19884;BME280;10104;50.732;10.174;2023-07-20T02:59:06;97620.16;;;16.13;86.03
19884;BME280;10104;50.732;10.174;2023-07-20T03:01:27;97615.41;;;16.27;86.13
19884;BME280;10104;50.732;10.174;2023-07-20T03:03:50;97626.09;;;16.27;85.80
19884;BME280;10104;50.732;10.174;2023-07-20T03:06:15;97624.59;;;16.31;86.36
19884;BME280;10104;50.732;10.174;2023-07-20T03:08:37;97624.25;;;16.27;87.47
19884;BME280;10104;50.732;10.174;2023-07-20T03:10:59;97624.69;;;16.36;86.30
19884;BME280;10104;50.732;10.174;2023-07-20T03:13:20;97620.31;;;16.41;86.03
19884;BME280;10104;50.732;10.174;2023-07-20T03:15:42;97623.44;;;16.38;87.42
19884;BME280;10104;50.732;10.174;2023-07-20T03:18:04;97626.00;;;16.45;86.70
19884;BME280;10104;50.732;10.174;2023-07-20T03:20:25;97625.41;;;16.54;86.68
19884;BME280;10104;50.732;10.174;2023-07-20T03:22:47;97631.47;;;16.50;88.54
19884;BME280;10104;50.732;10.174;2023-07-20T03:25:09;97625.19;;;16.68;87.65
19884;BME280;10104;50.732;10.174;2023-07-20T03:27:30;97630.09;;;16.71;88.14
19884;BME280;10104;50.732;10.174;2023-07-20T03:29:52;97628.06;;;16.43;90.49
19884;BME280;10104;50.732;10.174;2023-07-20T03:32:13;97620.88;;;16.43;89.27
19884;BME280;10104;50.732;10.174;2023-07-20T03:34:35;97637.66;;;16.62;88.34
19884;BME280;10104;50.732;10.174;2023-07-20T03:36:56;97636.34;;;16.53;89.76
19884;BME280;10104;50.732;10.174;2023-07-20T03:39:18;97626.72;;;16.64;88.52
19884;BME280;10104;50.732;10.174;2023-07-20T03:41:40;97626.34;;;16.48;90.97
19884;BME280;10104;50.732;10.174;2023-07-20T03:44:01;97623.91;;;16.58;89.53
19884;BME280;10104;50.732;10.174;2023-07-20T03:46:22;97621.25;;;16.70;88.59
19884;BME280;10104;50.732;10.174;2023-07-20T03:48:45;97626.25;;;16.90;88.45
19884;BME280;10104;50.732;10.174;2023-07-20T03:51:06;97619.97;;;16.96;88.04
19884;BME280;10104;50.732;10.174;2023-07-20T03:53:28;97616.88;;;17.16;88.02
19884;BME280;10104;50.732;10.174;2023-07-20T03:55:51;97627.97;;;16.96;89.99
19884;BME280;10104;50.732;10.174;2023-07-20T03:58:13;97624.38;;;17.02;88.80
19884;BME280;10104;50.732;10.174;2023-07-20T04:00:35;97629.59;;;17.09;88.51
19884;BME280;10104;50.732;10.174;2023-07-20T04:02:56;97626.44;;;17.12;88.30
19884;BME280;10104;50.732;10.174;2023-07-20T04:05:18;97631.34;;;17.03;89.50
19884;BME280;10104;50.732;10.174;2023-07-20T04:07:40;97636.31;;;17.11;88.38
19884;BME280;10104;50.732;10.174;2023-07-20T04:10:01;97632.28;;;17.09;89.60
19884;BME280;10104;50.732;10.174;2023-07-20T04:12:23;97641.22;;;17.14;88.85
19884;BME280;10104;50.732;10.174;2023-07-20T04:14:44;97633.41;;;17.13;88.79
19884;BME280;10104;50.732;10.174;2023-07-20T04:17:06;97628.38;;;17.28;87.90
19884;BME280;10104;50.732;10.174;2023-07-20T04:19:28;97634.88;;;17.32;88.07
19884;BME280;10104;50.732;10.174;2023-07-20T04:21:49;97633.31;;;17.48;87.16
19884;BME280;10104;50.732;10.174;2023-07-20T04:24:11;97640.88;;;17.51;87.88
19884;BME280;10104;50.732;10.174;2023-07-20T04:26:32;97636.66;;;17.55;87.60
19884;BME280;10104;50.732;10.174;2023-07-20T04:28:54;97632.03;;;17.50;88.24
19884;BME280;10104;50.732;10.174;2023-07-20T04:31:16;97648.19;;;17.55;88.25
19884;BME280;10104;50.732;10.174;2023-07-20T04:33:37;97644.59;;;17.61;88.04
19884;BME280;10104;50.732;10.174;2023-07-20T04:35:59;97644.44;;;17.68;88.04
19884;BME280;10104;50.732;10.174;2023-07-20T04:38:21;97638.94;;;17.74;87.38
19884;BME280;10104;50.732;10.174;2023-07-20T04:40:47;97646.41;;;17.72;87.72
19884;BME280;10104;50.732;10.174;2023-07-20T04:43:09;97644.16;;;17.81;87.02
19884;BME280;10104;50.732;10.174;2023-07-20T04:45:31;97640.38;;;17.94;86.08
19884;BME280;10104;50.732;10.174;2023-07-20T04:47:52;97640.47;;;17.99;85.86
19884;BME280;10104;50.732;10.174;2023-07-20T04:50:14;97647.69;;;17.98;86.42
19884;BME280;10104;50.732;10.174;2023-07-20T04:52:35;97639.72;;;18.03;86.24
19884;BME280;10104;50.732;10.174;2023-07-20T04:55:04;97646.84;;;17.81;88.36
19884;BME280;10104;50.732;10.174;2023-07-20T04:57:26;97645.78;;;17.82;88.54
19884;BME280;10104;50.732;10.174;2023-07-20T04:59:47;97644.41;;;17.96;87.51
19884;BME280;10104;50.732;10.174;2023-07-20T05:02:09;97639.56;;;18.10;87.15
19884;BME280;10104;50.732;10.174;2023-07-20T05:04:30;97639.41;;;18.16;87.13
19884;BME280;10104;50.732;10.174;2023-07-20T05:06:59;97645.75;;;18.27;86.54
19884;BME280;10104;50.732;10.174;2023-07-20T05:09:20;97656.16;;;18.40;86.48
19884;BME280;10104;50.732;10.174;2023-07-20T05:11:42;97653.75;;;18.55;85.99
19884;BME280;10104;50.732;10.174;2023-07-20T05:14:06;97652.69;;;18.73;85.90
19884;BME280;10104;50.732;10.174;2023-07-20T05:16:27;97651.06;;;18.55;87.00
19884;BME280;10104;50.732;10.174;2023-07-20T05:18:49;97659.03;;;18.50;88.11
19884;BME280;10104;50.732;10.174;2023-07-20T05:21:11;97649.66;;;18.36;88.10
19884;BME280;10104;50.732;10.174;2023-07-20T05:23:32;97647.00;;;18.36;88.35
19884;BME280;10104;50.732;10.174;2023-07-20T05:25:58;97652.19;;;18.43;88.49
19884;BME280;10104;50.732;10.174;2023-07-20T05:28:20;97649.91;;;18.35;88.63
19884;BME280;10104;50.732;10.174;2023-07-20T05:30:41;97656.47;;;18.27;87.79
19884;BME280;10104;50.732;10.174;2023-07-20T05:33:03;97653.41;;;18.35;88.44
19884;BME280;10104;50.732;10.174;2023-07-20T05:35:26;97656.56;;;18.49;88.47
19884;BME280;10104;50.732;10.174;2023-07-20T05:37:47;97650.84;;;18.57;87.43
19884;BME280;10104;50.732;10.174;2023-07-20T05:40:09;97653.63;;;18.34;87.23
19884;BME280;10104;50.732;10.174;2023-07-20T05:42:33;97658.31;;;18.55;87.30
19884;BME280;10104;50.732;10.174;2023-07-20T05:44:55;97658.38;;;18.60;85.96
19884;BME280;10104;50.732;10.174;2023-07-20T05:47:16;97653.91;;;18.49;85.93
19884;BME280;10104;50.732;10.174;2023-07-20T05:49:38;97656.50;;;18.61;85.75
19884;BME280;10104;50.732;10.174;2023-07-20T05:51:59;97655.22;;;18.63;85.66
19884;BME280;10104;50.732;10.174;2023-07-20T05:54:24;97661.53;;;18.74;84.71
19884;BME280;10104;50.732;10.174;2023-07-20T05:56:46;97654.69;;;18.83;84.75
19884;BME280;10104;50.732;10.174;2023-07-20T05:59:08;97659.88;;;18.89;83.80
19884;BME280;10104;50.732;10.174;2023-07-20T06:01:29;97663.09;;;19.08;83.22
19884;BME280;10104;50.732;10.174;2023-07-20T06:03:51;97664.09;;;19.02;82.38
19884;BME280;10104;50.732;10.174;2023-07-20T06:06:13;97661.41;;;19.02;81.92
19884;BME280;10104;50.732;10.174;2023-07-20T06:08:34;97668.75;;;19.07;81.90
19884;BME280;10104;50.732;10.174;2023-07-20T06:10:56;97667.41;;;19.09;81.11
19884;BME280;10104;50.732;10.174;2023-07-20T06:13:18;97667.81;;;19.18;80.57
19884;BME280;10104;50.732;10.174;2023-07-20T06:15:39;97670.63;;;19.06;80.69
19884;BME280;10104;50.732;10.174;2023-07-20T06:18:02;97668.06;;;19.16;80.58
19884;BME280;10104;50.732;10.174;2023-07-20T06:20:25;97667.34;;;19.04;82.15
19884;BME280;10104;50.732;10.174;2023-07-20T06:22:47;97668.13;;;19.43;79.88
19884;BME280;10104;50.732;10.174;2023-07-20T06:25:09;97671.69;;;19.70;78.99
19884;BME280;10104;50.732;10.174;2023-07-20T06:27:31;97667.47;;;19.74;78.03
19884;BME280;10104;50.732;10.174;2023-07-20T06:29:53;97667.13;;;19.71;78.42
19884;BME280;10104;50.732;10.174;2023-07-20T06:32:14;97662.53;;;19.66;77.09
19884;BME280;10104;50.732;10.174;2023-07-20T06:34:36;97657.22;;;19.71;76.65
19884;BME280;10104;50.732;10.174;2023-07-20T06:36:59;97651.84;;;19.98;74.79
19884;BME280;10104;50.732;10.174;2023-07-20T06:39:21;97655.66;;;20.02;76.24
19884;BME280;10104;50.732;10.174;2023-07-20T06:41:46;97650.66;;;19.89;76.75
19884;BME280;10104;50.732;10.174;2023-07-20T06:44:08;97654.75;;;19.92;76.56
19884;BME280;10104;50.732;10.174;2023-07-20T06:46:29;97651.44;;;19.85;76.04
19884;BME280;10104;50.732;10.174;2023-07-20T06:48:51;97656.81;;;19.85;74.97
19884;BME280;10104;50.732;10.174;2023-07-20T06:51:15;97656.28;;;19.88;74.88
19884;BME280;10104;50.732;10.174;2023-07-20T06:53:38;97664.22;;;19.72;76.82
19884;BME280;10104;50.732;10.174;2023-07-20T06:56:00;97662.72;;;19.60;76.20
19884;BME280;10104;50.732;10.174;2023-07-20T06:58:21;97657.00;;;19.78;74.63
19884;BME280;10104;50.732;10.174;2023-07-20T07:00:43;97669.19;;;19.86;74.57
19884;BME280;10104;50.732;10.174;2023-07-20T07:03:06;97666.19;;;19.82;73.33
19884;BME280;10104;50.732;10.174;2023-07-20T07:05:28;97669.81;;;19.71;73.97
19884;BME280;10104;50.732;10.174;2023-07-20T07:07:57;97670.06;;;19.91;72.87
19884;BME280;10104;50.732;10.174;2023-07-20T07:10:18;97673.44;;;19.82;72.96
19884;BME280;10104;50.732;10.174;2023-07-20T07:12:40;97671.16;;;19.68;70.96
19884;BME280;10104;50.732;10.174;2023-07-20T07:15:04;97666.50;;;19.64;70.62
19884;BME280;10104;50.732;10.174;2023-07-20T07:17:27;97672.13;;;19.84;72.25
19884;BME280;10104;50.732;10.174;2023-07-20T07:19:49;97680.47;;;19.88;72.38
19884;BME280;10104;50.732;10.174;2023-07-20T07:22:11;97671.22;;;19.73;71.77
19884;BME280;10104;50.732;10.174;2023-07-20T07:24:33;97677.31;;;20.17;72.11
19884;BME280;10104;50.732;10.174;2023-07-20T07:26:57;97677.00;;;20.14;69.90
19884;BME280;10104;50.732;10.174;2023-07-20T07:29:18;97682.53;;;20.02;68.91
19884;BME280;10104;50.732;10.174;2023-07-20T07:31:40;97683.63;;;20.06;68.00
19884;BME280;10104;50.732;10.174;2023-07-20T07:34:02;97680.69;;;20.08;66.99
19884;BME280;10104;50.732;10.174;2023-07-20T07:36:24;97681.25;;;20.37;68.31
19884;BME280;10104;50.732;10.174;2023-07-20T07:38:46;97679.78;;;20.24;69.38
19884;BME280;10104;50.732;10.174;2023-07-20T07:41:10;97675.28;;;20.30;67.15
19884;BME280;10104;50.732;10.174;2023-07-20T07:43:32;97676.97;;;20.36;66.64
19884;BME280;10104;50.732;10.174;2023-07-20T07:45:55;97672.69;;;20.13;67.14
19884;BME280;10104;50.732;10.174;2023-07-20T07:48:16;97672.47;;;20.19;67.94
19884;BME280;10104;50.732;10.174;2023-07-20T07:50:38;97678.06;;;20.13;69.28
19884;BME280;10104;50.732;10.174;2023-07-20T07:53:01;97676.88;;;20.31;67.01
19884;BME280;10104;50.732;10.174;2023-07-20T07:55:24;97682.13;;;20.42;65.55
19884;BME280;10104;50.732;10.174;2023-07-20T07:57:45;97688.25;;;20.38;65.15
19884;BME280;10104;50.732;10.174;2023-07-20T08:00:09;97685.81;;;20.68;63.39
19884;BME280;10104;50.732;10.174;2023-07-20T08:02:35;97694.47;;;21.12;63.32
19884;BME280;10104;50.732;10.174;2023-07-20T08:04:57;97693.06;;;21.42;62.28
19884;BME280;10104;50.732;10.174;2023-07-20T08:07:18;97685.00;;;21.47;60.73
19884;BME280;10104;50.732;10.174;2023-07-20T08:09:40;97688.75;;;21.46;62.03
19884;BME280;10104;50.732;10.174;2023-07-20T08:12:02;97691.25;;;21.67;61.83
19884;BME280;10104;50.732;10.174;2023-07-20T08:14:24;97714.28;;;21.28;62.71
19884;BME280;10104;50.732;10.174;2023-07-20T08:16:46;97695.81;;;21.62;61.93
19884;BME280;10104;50.732;10.174;2023-07-20T08:19:09;97691.56;;;21.66;60.56
19884;BME280;10104;50.732;10.174;2023-07-20T08:21:30;97702.34;;;21.71;62.95
19884;BME280;10104;50.732;10.174;2023-07-20T08:23:52;97698.75;;;21.50;60.94
19884;BME280;10104;50.732;10.174;2023-07-20T08:26:13;97690.31;;;21.36;61.25
19884;BME280;10104;50.732;10.174;2023-07-20T08:28:35;97689.78;;;21.34;61.29
19884;BME280;10104;50.732;10.174;2023-07-20T08:30:57;97681.47;;;21.41;60.02
19884;BME280;10104;50.732;10.174;2023-07-20T08:33:20;97693.00;;;21.31;61.52
19884;BME280;10104;50.732;10.174;2023-07-20T08:35:42;97693.75;;;21.17;58.98
19884;BME280;10104;50.732;10.174;2023-07-20T08:38:04;97700.22;;;21.21;58.91
19884;BME280;10104;50.732;10.174;2023-07-20T08:40:29;97700.78;;;21.23;60.76
19884;BME280;10104;50.732;10.174;2023-07-20T08:42:52;97687.00;;;21.19;61.44
19884;BME280;10104;50.732;10.174;2023-07-20T08:45:16;97698.75;;;21.55;61.06
19884;BME280;10104;50.732;10.174;2023-07-20T08:47:38;97697.22;;;21.74;58.01
19884;BME280;10104;50.732;10.174;2023-07-20T08:50:00;97697.22;;;21.69;58.18
19884;BME280;10104;50.732;10.174;2023-07-20T08:52:27;97688.09;;;21.86;56.69
19884;BME280;10104;50.732;10.174;2023-07-20T08:54:49;97691.91;;;21.95;54.89
19884;BME280;10104;50.732;10.174;2023-07-20T08:57:13;97699.31;;;21.52;58.15
19884;BME280;10104;50.732;10.174;2023-07-20T08:59:36;97706.28;;;21.48;57.36
19884;BME280;10104;50.732;10.174;2023-07-20T09:02:00;97705.31;;;21.79;57.96
19884;BME280;10104;50.732;10.174;2023-07-20T09:04:21;97708.34;;;21.93;55.19
19884;BME280;10104;50.732;10.174;2023-07-20T09:06:43;97705.16;;;22.01;54.06
19884;BME280;10104;50.732;10.174;2023-07-20T09:09:06;97699.81;;;22.42;54.62
19884;BME280;10104;50.732;10.174;2023-07-20T09:11:27;97689.56;;;22.29;53.54
19884;BME280;10104;50.732;10.174;2023-07-20T09:14:08;97684.19;;;22.59;56.95
19884;BME280;10104;50.732;10.174;2023-07-20T09:16:30;97690.41;;;22.49;56.19
19884;BME280;10104;50.732;10.174;2023-07-20T09:18:51;97676.63;;;22.51;53.13
19884;BME280;10104;50.732;10.174;2023-07-20T09:21:16;97669.88;;;22.64;51.41
19884;BME280;10104;50.732;10.174;2023-07-20T09:23:38;97690.91;;;22.72;54.45
19884;BME280;10104;50.732;10.174;2023-07-20T09:26:13;97663.41;;;22.59;51.61
19884;BME280;10104;50.732;10.174;2023-07-20T09:28:47;97675.28;;;22.53;51.73
19884;BME280;10104;50.732;10.174;2023-07-20T09:31:16;97686.88;;;23.05;51.78
19884;BME280;10104;50.732;10.174;2023-07-20T09:33:41;97680.34;;;23.21;51.25
19884;BME280;10104;50.732;10.174;2023-07-20T09:36:21;97686.78;;;23.50;49.05
19884;BME280;10104;50.732;10.174;2023-07-20T09:39:03;97676.72;;;23.61;48.53
19884;BME280;10104;50.732;10.174;2023-07-20T09:41:26;97678.34;;;23.62;48.33
19884;BME280;10104;50.732;10.174;2023-07-20T09:43:51;97676.59;;;23.91;46.72
19884;BME280;10104;50.732;10.174;2023-07-20T09:46:12;97675.75;;;23.96;46.63
19884;BME280;10104;50.732;10.174;2023-07-20T09:48:54;97679.25;;;23.96;47.43
19884;BME280;10104;50.732;10.174;2023-07-20T09:51:22;97667.31;;;23.43;46.97
19884;BME280;10104;50.732;10.174;2023-07-20T09:53:45;97670.56;;;23.40;46.25
19884;BME280;10104;50.732;10.174;2023-07-20T09:56:07;97682.47;;;23.44;47.14
19884;BME280;10104;50.732;10.174;2023-07-20T09:58:31;97679.25;;;23.32;46.50
19884;BME280;10104;50.732;10.174;2023-07-20T10:00:56;97685.75;;;23.31;48.01
19884;BME280;10104;50.732;10.174;2023-07-20T10:03:20;97685.38;;;23.63;47.54
19884;BME280;10104;50.732;10.174;2023-07-20T10:05:47;97679.56;;;23.90;47.30
19884;BME280;10104;50.732;10.174;2023-07-20T10:08:12;97689.06;;;23.87;46.57
19884;BME280;10104;50.732;10.174;2023-07-20T10:10:38;97687.53;;;23.66;47.18
19884;BME280;10104;50.732;10.174;2023-07-20T10:13:02;97696.69;;;23.75;45.94
19884;BME280;10104;50.732;10.174;2023-07-20T10:15:29;97683.22;;;23.60;46.38
19884;BME280;10104;50.732;10.174;2023-07-20T10:18:07;97683.34;;;23.94;44.56
19884;BME280;10104;50.732;10.174;2023-07-20T10:20:32;97691.34;;;24.09;45.17
19884;BME280;10104;50.732;10.174;2023-07-20T10:22:55;97690.88;;;23.97;45.42
19884;BME280;10104;50.732;10.174;2023-07-20T10:25:20;97701.25;;;24.34;44.85
19884;BME280;10104;50.732;10.174;2023-07-20T10:27:41;97704.84;;;24.14;46.30
19884;BME280;10104;50.732;10.174;2023-07-20T10:30:04;97708.06;;;24.26;47.23
19884;BME280;10104;50.732;10.174;2023-07-20T10:32:27;97708.19;;;24.01;44.88
19884;BME280;10104;50.732;10.174;2023-07-20T10:34:52;97723.25;;;24.17;45.38
19884;BME280;10104;50.732;10.174;2023-07-20T10:43:03;97735.25;;;23.96;45.86
19884;BME280;10104;50.732;10.174;2023-07-20T10:45:51;97734.00;;;23.78;45.36
19884;BME280;10104;50.732;10.174;2023-07-20T10:48:24;97735.84;;;23.83;46.89
19884;BME280;10104;50.732;10.174;2023-07-20T10:51:12;97722.81;;;24.00;45.26
19884;BME280;10104;50.732;10.174;2023-07-20T10:53:37;97729.34;;;23.89;45.04
19884;BME280;10104;50.732;10.174;2023-07-20T10:56:07;97727.53;;;23.74;45.10
19884;BME280;10104;50.732;10.174;2023-07-20T10:58:29;97732.16;;;23.68;45.96
19884;BME280;10104;50.732;10.174;2023-07-20T11:00:58;97730.16;;;23.89;44.49
19884;BME280;10104;50.732;10.174;2023-07-20T11:05:57;97736.25;;;24.20;43.83
19884;BME280;10104;50.732;10.174;2023-07-20T11:08:41;97720.28;;;24.63;43.87
19884;BME280;10104;50.732;10.174;2023-07-20T11:11:28;97723.75;;;24.68;42.98
19884;BME280;10104;50.732;10.174;2023-07-20T11:14:01;97719.94;;;25.32;43.06
19884;BME280;10104;50.732;10.174;2023-07-20T11:18:54;97721.31;;;25.29;42.53
19884;BME280;10104;50.732;10.174;2023-07-20T11:21:17;97711.47;;;26.05;41.19
19884;BME280;10104;50.732;10.174;2023-07-20T11:23:39;97719.41;;;26.01;41.23
19884;BME280;10104;50.732;10.174;2023-07-20T11:26:01;97713.50;;;26.37;41.28
19884;BME280;10104;50.732;10.174;2023-07-20T11:28:24;97721.88;;;26.40;40.95
19884;BME280;10104;50.732;10.174;2023-07-20T11:30:52;97717.22;;;26.22;40.50
19884;BME280;10104;50.732;10.174;2023-07-20T11:33:16;97720.81;;;26.17;41.02
19884;BME280;10104;50.732;10.174;2023-07-20T11:35:44;97721.09;;;25.50;41.46
19884;BME280;10104;50.732;10.174;2023-07-20T11:38:08;97729.03;;;25.70;41.94
19884;BME280;10104;50.732;10.174;2023-07-20T11:40:29;97739.03;;;25.46;42.34
19884;BME280;10104;50.732;10.174;2023-07-20T11:42:52;97730.28;;;25.30;42.53
19884;BME280;10104;50.732;10.174;2023-07-20T11:45:17;97728.13;;;25.27;42.32
19884;BME280;10104;50.732;10.174;2023-07-20T11:47:42;97731.94;;;24.58;44.21
19884;BME280;10104;50.732;10.174;2023-07-20T11:50:04;97727.56;;;24.23;45.22
19884;BME280;10104;50.732;10.174;2023-07-20T11:52:26;97738.06;;;23.75;45.67
19884;BME280;10104;50.732;10.174;2023-07-20T11:54:49;97737.34;;;23.50;46.71
19884;BME280;10104;50.732;10.174;2023-07-20T11:57:18;97736.56;;;23.19;47.07
19884;BME280;10104;50.732;10.174;2023-07-20T11:59:52;97733.91;;;22.83;48.43
19884;BME280;10104;50.732;10.174;2023-07-20T12:02:14;97731.69;;;22.65;47.73
19884;BME280;10104;50.732;10.174;2023-07-20T12:04:35;97738.16;;;22.59;48.23
19884;BME280;10104;50.732;10.174;2023-07-20T12:06:57;97738.16;;;22.44;48.94
19884;BME280;10104;50.732;10.174;2023-07-20T12:09:19;97732.47;;;22.35;48.15
19884;BME280;10104;50.732;10.174;2023-07-20T12:11:43;97736.78;;;22.31;49.71
19884;BME280;10104;50.732;10.174;2023-07-20T12:14:07;97741.13;;;22.37;49.89
19884;BME280;10104;50.732;10.174;2023-07-20T12:16:38;97735.19;;;22.45;49.67
19884;BME280;10104;50.732;10.174;2023-07-20T12:19:04;97740.00;;;22.28;49.96
19884;BME280;10104;50.732;10.174;2023-07-20T12:21:26;97745.38;;;22.18;51.58
19884;BME280;10104;50.732;10.174;2023-07-20T12:23:48;97746.69;;;22.05;51.70
19884;BME280;10104;50.732;10.174;2023-07-20T12:26:10;97754.41;;;21.82;50.57
19884;BME280;10104;50.732;10.174;2023-07-20T12:28:32;97760.38;;;21.84;52.38
19884;BME280;10104;50.732;10.174;2023-07-20T12:30:53;97754.00;;;22.10;53.81
19884;BME280;10104;50.732;10.174;2023-07-20T12:33:18;97749.72;;;22.34;51.93
19884;BME280;10104;50.732;10.174;2023-07-20T12:35:39;97738.69;;;22.36;51.69
19884;BME280;10104;50.732;10.174;2023-07-20T12:38:01;97748.09;;;22.23;52.78
19884;BME280;10104;50.732;10.174;2023-07-20T12:40:23;97742.59;;;21.93;54.15
19884;BME280;10104;50.732;10.174;2023-07-20T12:42:44;97740.81;;;22.18;54.77
19884;BME280;10104;50.732;10.174;2023-07-20T12:45:06;97738.69;;;22.31;53.80
19884;BME280;10104;50.732;10.174;2023-07-20T12:47:28;97737.91;;;22.60;53.01
19884;BME280;10104;50.732;10.174;2023-07-20T12:49:50;97730.63;;;22.46;53.86